Time;durP1;ratioP1;P1;durP2;ratioP2;P2;SDS_P1;SDS_P2;PMS_P1;PMS_P2;Temp;Humidity;BMP_temperature;BMP_pressure;BME280_temperature;BME280_humidity;BME280_pressure;Samples;Min_cycle;Max_cycle;Signal;HPM_P1;HPM_P2
2023/03/30 00:00:44;;;;;;;22.00;14.85;;;11.20;99.90;;;;;;5007494;28;20049;-58
2023/03/30 00:03:10;;;;;;;23.27;14.50;;;11.20;99.90;;;;;;5009011;28;20041;-59
2023/03/30 00:05:37;;;;;;;20.92;14.57;;;11.20;99.90;;;;;;5018746;28;20060;-58
2023/03/30 00:08:03;;;;;;;18.23;14.63;;;11.20;99.90;;;;;;5024095;28;20425;-58
2023/03/30 00:10:29;;;;;;;19.70;14.60;;;11.20;99.90;;;;;;4979406;28;20057;-58
2023/03/30 00:12:56;;;;;;;21.60;14.85;;;11.30;99.90;;;;;;5021856;28;20049;-59
2023/03/30 00:15:22;;;;;;;17.58;13.25;;;11.20;99.90;;;;;;5002551;28;20048;-59
2023/03/30 00:17:53;;;;;;;18.58;13.30;;;11.30;99.90;;;;;;5002299;28;20580;-59
2023/03/30 00:20:20;;;;;;;23.02;13.88;;;11.30;99.90;;;;;;4988177;28;20613;-58
2023/03/30 00:22:46;;;;;;;21.42;13.52;;;11.30;99.90;;;;;;5008308;28;20073;-58
2023/03/30 00:25:14;;;;;;;19.05;12.60;;;11.30;99.90;;;;;;5009380;28;20430;-58
2023/03/30 00:27:41;;;;;;;17.33;12.30;;;11.30;99.90;;;;;;5007249;28;20128;-59
2023/03/30 00:30:13;;;;;;;20.40;12.13;;;11.30;99.90;;;;;;4995816;28;20061;-58
2023/03/30 00:32:39;;;;;;;24.23;11.63;;;11.40;99.90;;;;;;5017955;28;20162;-59
2023/03/30 00:35:05;;;;;;;20.17;11.32;;;11.40;99.90;;;;;;5020819;28;20323;-58
2023/03/30 00:37:32;;;;;;;15.57;10.20;;;11.40;99.90;;;;;;5023149;28;21008;-58
2023/03/30 00:39:58;;;;;;;16.05;11.20;;;11.40;99.90;;;;;;5021503;28;20455;-58
2023/03/30 00:42:23;;;;;;;17.90;10.93;;;11.40;99.90;;;;;;5014698;28;20041;-58
2023/03/30 00:45:25;;;;;;;15.73;10.25;;;11.40;99.90;;;;;;5020973;28;20045;-59
2023/03/30 00:48:14;;;;;;;14.38;10.35;;;11.40;99.90;;;;;;5017959;28;20063;-59
2023/03/30 00:50:52;;;;;;;21.55;10.05;;;11.40;99.90;;;;;;4995769;28;20522;-59
2023/03/30 00:53:32;;;;;;;16.00;10.18;;;11.50;99.90;;;;;;4993737;28;20087;-59
2023/03/30 00:56:01;;;;;;;18.73;9.88;;;11.50;99.90;;;;;;4987950;28;20222;-59
2023/03/30 00:58:28;;;;;;;12.50;9.50;;;11.50;99.90;;;;;;5024140;28;20046;-57
2023/03/30 01:00:57;;;;;;;15.35;9.50;;;11.50;99.90;;;;;;5001010;28;20049;-58
2023/03/30 01:03:44;;;;;;;14.30;9.38;;;11.50;99.90;;;;;;5005077;28;20044;-58
2023/03/30 01:06:12;;;;;;;14.35;9.10;;;11.50;99.90;;;;;;5024387;28;20045;-59
2023/03/30 01:08:41;;;;;;;14.57;9.57;;;11.50;99.90;;;;;;5001038;28;20070;-60
2023/03/30 01:11:07;;;;;;;12.48;8.93;;;11.50;99.90;;;;;;5023457;28;20154;-59
2023/03/30 01:13:36;;;;;;;13.60;8.77;;;11.60;99.90;;;;;;5020465;28;20042;-58
2023/03/30 01:16:17;;;;;;;14.40;9.23;;;11.60;99.90;;;;;;5022274;28;20132;-60
2023/03/30 01:19:08;;;;;;;14.00;9.20;;;11.60;99.90;;;;;;5002652;28;20076;-58
2023/03/30 01:22:11;;;;;;;14.60;9.50;;;11.60;99.90;;;;;;4996799;28;20088;-59
2023/03/30 01:24:47;;;;;;;;;;;11.60;99.90;;;;;;5013877;28;20183;-59
2023/03/30 01:27:51;;;;;;;17.65;9.30;;;11.50;99.90;;;;;;4996163;28;20412;-58
2023/03/30 01:30:35;;;;;;;13.93;9.27;;;11.50;99.90;;;;;;5022021;28;20567;-59
2023/03/30 01:33:35;;;;;;;13.10;8.25;;;11.50;99.90;;;;;;5013463;28;20049;-59
2023/03/30 01:36:27;;;;;;;12.07;8.32;;;11.60;99.90;;;;;;5016490;28;20100;-59
2023/03/30 01:39:11;;;;;;;16.27;8.75;;;11.50;99.90;;;;;;5009417;28;20052;-58
2023/03/30 01:41:55;;;;;;;12.05;8.20;;;11.50;99.90;;;;;;5022903;28;20098;-59
2023/03/30 01:44:51;;;;;;;17.35;8.27;;;11.60;99.90;;;;;;4980779;28;20483;-60
2023/03/30 01:47:37;;;;;;;16.52;8.40;;;11.50;99.90;;;;;;5016920;28;20092;-59
2023/03/30 01:50:19;;;;;;;14.73;8.90;;;11.50;99.90;;;;;;4997232;28;20073;-59
2023/03/30 01:53:00;;;;;;;13.47;8.47;;;11.50;99.90;;;;;;4998147;28;20048;-59
2023/03/30 01:55:44;;;;;;;12.45;8.15;;;11.50;99.90;;;;;;5020882;28;20127;-59
2023/03/30 01:58:20;;;;;;;12.90;7.85;;;11.50;99.90;;;;;;5020652;28;20136;-58
2023/03/30 02:00:49;;;;;;;12.77;6.97;;;11.50;99.90;;;;;;5023048;28;20111;-59
2023/03/30 02:03:38;;;;;;;13.55;8.15;;;11.50;99.90;;;;;;5006568;28;20064;-58
2023/03/30 02:06:12;;;;;;;8.98;6.93;;;11.60;99.90;;;;;;5004818;28;20052;-59
2023/03/30 02:08:39;;;;;;;14.50;6.93;;;11.60;99.90;;;;;;5020863;28;20423;-60
2023/03/30 02:11:06;;;;;;;11.75;7.53;;;11.60;99.90;;;;;;4996603;28;20492;-59
2023/03/30 02:13:34;;;;;;;13.82;7.15;;;11.50;99.90;;;;;;5003989;28;21038;-59
2023/03/30 02:16:12;;;;;;;9.40;6.80;;;11.50;99.90;;;;;;5016032;28;20045;-59
2023/03/30 02:18:38;;;;;;;11.68;7.22;;;11.50;99.90;;;;;;5017602;28;20511;-60
2023/03/30 02:21:04;;;;;;;11.18;6.70;;;11.40;99.90;;;;;;5020282;28;20055;-60
2023/03/30 02:23:35;;;;;;;11.85;7.15;;;11.40;99.90;;;;;;5003233;28;20503;-60
2023/03/30 02:26:01;;;;;;;13.05;6.95;;;11.40;99.90;;;;;;5005787;28;20053;-59
2023/03/30 02:28:27;;;;;;;14.70;7.63;;;11.40;99.90;;;;;;5024262;28;20049;-59
2023/03/30 02:30:53;;;;;;;13.63;7.57;;;11.40;99.90;;;;;;5003101;28;20468;-59
2023/03/30 02:33:45;;;;;;;19.83;6.60;;;11.40;99.90;;;;;;5006443;28;20504;-59
2023/03/30 02:36:48;;;;;;;13.85;6.35;;;11.40;99.90;;;;;;5007053;28;20159;-58
2023/03/30 02:39:46;;;;;;;14.27;6.30;;;11.40;99.90;;;;;;5009602;28;20049;-59
2023/03/30 02:42:44;;;;;;;12.43;6.60;;;11.40;99.90;;;;;;5020239;28;20432;-60
2023/03/30 02:45:28;;;;;;;11.32;6.07;;;11.40;99.90;;;;;;5017735;28;20092;-59
2023/03/30 02:48:27;;;;;;;14.95;5.80;;;11.40;99.90;;;;;;5001645;28;20060;-58
2023/03/30 02:51:28;;;;;;;14.63;5.43;;;11.40;99.90;;;;;;5018202;28;20827;-59
2023/03/30 02:54:31;;;;;;;10.88;5.75;;;11.40;99.90;;;;;;4999619;28;20053;-58
2023/03/30 02:57:15;;;;;;;10.50;5.20;;;11.40;99.90;;;;;;5021434;28;20138;-59
2023/03/30 03:00:07;;;;;;;9.73;5.72;;;11.40;99.90;;;;;;5019103;28;20053;-59
2023/03/30 03:02:39;;;;;;;11.63;5.53;;;11.40;99.90;;;;;;5020924;28;20518;-58
2023/03/30 03:05:07;;;;;;;8.43;4.85;;;11.50;99.90;;;;;;5018803;28;20055;-59
2023/03/30 03:07:34;;;;;;;10.50;4.72;;;11.50;99.90;;;;;;5000022;28;20051;-59
2023/03/30 03:10:00;;;;;;;11.90;5.13;;;11.50;99.90;;;;;;5001784;28;20121;-59
2023/03/30 03:12:27;;;;;;;13.65;4.85;;;11.50;99.90;;;;;;5005329;28;20040;-59
2023/03/30 03:14:53;;;;;;;10.20;4.53;;;11.60;99.90;;;;;;5017149;28;20526;-59
2023/03/30 03:17:21;;;;;;;9.70;4.32;;;11.60;99.90;;;;;;5001874;28;20042;-60
2023/03/30 03:19:49;;;;;;;7.03;3.92;;;11.70;99.90;;;;;;5023618;28;20186;-58
2023/03/30 03:22:16;;;;;;;11.38;4.07;;;11.70;99.90;;;;;;5002537;28;20121;-58
2023/03/30 03:24:43;;;;;;;7.93;3.75;;;11.80;99.90;;;;;;5020589;28;20049;-58
2023/03/30 03:27:10;;;;;;;11.57;4.13;;;11.80;99.90;;;;;;5021834;28;20041;-59
2023/03/30 03:29:36;;;;;;;9.45;3.95;;;11.80;99.90;;;;;;5019319;28;20049;-59
2023/03/30 03:32:02;;;;;;;9.18;3.63;;;11.80;99.90;;;;;;4987786;28;20041;-60
2023/03/30 03:34:30;;;;;;;12.45;4.00;;;11.80;99.90;;;;;;5017170;28;20107;-58
2023/03/30 03:36:59;;;;;;;10.75;3.80;;;11.80;99.90;;;;;;5015748;28;20091;-60
2023/03/30 03:39:25;;;;;;;15.02;4.75;;;11.80;99.90;;;;;;5018127;28;20049;-58
2023/03/30 03:41:50;;;;;;;9.43;4.32;;;11.80;99.90;;;;;;5007241;28;20044;-59
2023/03/30 03:44:16;;;;;;;11.13;4.00;;;11.80;99.90;;;;;;4999920;28;20049;-60
2023/03/30 03:46:42;;;;;;;12.10;3.92;;;11.80;99.90;;;;;;5007226;28;20136;-59
2023/03/30 03:49:08;;;;;;;11.32;4.30;;;11.80;99.90;;;;;;5017043;28;20119;-60
2023/03/30 03:51:34;;;;;;;10.02;4.57;;;11.80;99.90;;;;;;4986282;28;20053;-59
2023/03/30 03:54:00;;;;;;;10.07;4.40;;;11.70;99.90;;;;;;5018787;28;20400;-59
2023/03/30 03:56:26;;;;;;;9.32;4.10;;;11.80;99.90;;;;;;4981235;28;20045;-58
2023/03/30 03:58:52;;;;;;;10.55;4.43;;;11.80;99.90;;;;;;5017496;28;20050;-58
2023/03/30 04:01:19;;;;;;;11.38;4.75;;;11.80;99.90;;;;;;4998750;28;20121;-59
2023/03/30 04:03:44;;;;;;;9.75;4.40;;;11.70;99.90;;;;;;5025025;28;20056;-60
2023/03/30 04:06:10;;;;;;;8.85;4.13;;;11.80;99.90;;;;;;5023536;28;20054;-60
2023/03/30 04:08:36;;;;;;;11.30;4.13;;;11.70;99.90;;;;;;5018233;28;20164;-58
2023/03/30 04:11:07;;;;;;;13.32;4.63;;;11.80;99.90;;;;;;4989789;28;20057;-59
2023/03/30 04:13:34;;;;;;;11.43;4.35;;;11.80;99.90;;;;;;5016758;28;20073;-59
2023/03/30 04:16:01;;;;;;;17.30;4.72;;;11.80;99.90;;;;;;5019841;28;20060;-59
2023/03/30 04:18:32;;;;;;;10.57;4.03;;;11.80;99.90;;;;;;5021296;28;20077;-59
2023/03/30 04:21:04;;;;;;;10.70;3.83;;;11.70;99.90;;;;;;5002532;28;20048;-60
2023/03/30 04:23:32;;;;;;;8.68;3.58;;;11.80;99.90;;;;;;5001278;28;20060;-60
2023/03/30 04:26:06;;;;;;;14.45;3.80;;;11.80;99.90;;;;;;5007908;28;20045;-59
2023/03/30 04:28:33;;;;;;;13.65;3.10;;;11.80;99.90;;;;;;5016237;28;20495;-58
2023/03/30 04:31:02;;;;;;;9.43;3.55;;;11.80;99.90;;;;;;5005801;28;20047;-58
2023/03/30 04:33:27;;;;;;;9.80;3.17;;;11.80;99.90;;;;;;5005656;28;20309;-59
2023/03/30 04:35:54;;;;;;;8.27;3.22;;;11.70;99.90;;;;;;5025397;28;20443;-59
2023/03/30 04:38:22;;;;;;;9.38;3.33;;;11.70;99.90;;;;;;5017397;28;21268;-59
2023/03/30 04:40:52;;;;;;;8.75;2.85;;;11.70;99.90;;;;;;5020572;28;20045;-60
2023/03/30 04:43:19;;;;;;;13.10;3.53;;;11.70;99.90;;;;;;5006845;28;20049;-58
2023/03/30 04:45:53;;;;;;;8.63;3.10;;;11.70;99.90;;;;;;5018361;28;20180;-59
2023/03/30 04:48:20;;;;;;;12.00;3.35;;;11.70;99.90;;;;;;5022112;28;20111;-59
2023/03/30 04:50:48;;;;;;;11.45;3.28;;;11.70;99.90;;;;;;5002720;28;20065;-60
2023/03/30 04:53:14;;;;;;;13.40;3.17;;;11.70;99.90;;;;;;5022762;28;20194;-58
2023/03/30 04:55:41;;;;;;;12.02;2.90;;;11.70;99.90;;;;;;5004267;28;20121;-58
2023/03/30 04:58:10;;;;;;;12.13;3.25;;;11.70;99.90;;;;;;5022354;28;20045;-59
2023/03/30 05:00:36;;;;;;;8.55;3.20;;;11.70;99.90;;;;;;5003902;28;21674;-59
2023/03/30 05:03:03;;;;;;;8.13;2.97;;;11.70;99.90;;;;;;5020059;28;20091;-59
2023/03/30 05:05:29;;;;;;;9.60;2.97;;;11.80;99.90;;;;;;4982499;28;20048;-59
2023/03/30 05:07:55;;;;;;;8.68;2.97;;;11.80;99.90;;;;;;5022642;28;20093;-60
2023/03/30 05:10:21;;;;;;;8.95;2.88;;;11.80;99.90;;;;;;5000919;28;20542;-58
2023/03/30 05:12:47;;;;;;;11.35;3.25;;;11.80;99.90;;;;;;5003700;28;20502;-60
2023/03/30 05:15:13;;;;;;;10.43;3.00;;;11.80;99.90;;;;;;5015062;28;20057;-59
2023/03/30 05:17:39;;;;;;;12.68;3.50;;;11.80;99.90;;;;;;5018724;28;20046;-59
2023/03/30 05:20:09;;;;;;;9.40;3.15;;;11.80;99.90;;;;;;5002172;28;20088;-59
2023/03/30 05:22:35;;;;;;;13.27;3.08;;;11.80;99.90;;;;;;4999240;28;20044;-59
2023/03/30 05:25:04;;;;;;;12.68;3.28;;;11.80;99.90;;;;;;4996939;28;22094;-60
2023/03/30 05:27:30;;;;;;;13.65;3.67;;;11.90;99.90;;;;;;5010643;28;20045;-58
2023/03/30 05:29:56;;;;;;;14.43;3.40;;;11.90;99.90;;;;;;5007327;28;20163;-58
2023/03/30 05:32:22;;;;;;;9.35;3.40;;;11.90;99.90;;;;;;4998756;28;20049;-59
2023/03/30 05:34:47;;;;;;;11.30;3.50;;;11.90;99.90;;;;;;4997040;28;20065;-58
2023/03/30 05:37:13;;;;;;;12.90;3.60;;;11.90;99.90;;;;;;5018082;28;20041;-59
2023/03/30 05:39:40;;;;;;;16.45;3.72;;;11.90;99.90;;;;;;5018936;28;21249;-58
2023/03/30 05:42:06;;;;;;;10.75;3.70;;;11.90;99.90;;;;;;5016686;28;20042;-58
2023/03/30 05:44:32;;;;;;;14.02;3.53;;;12.00;99.90;;;;;;5015527;28;20049;-59
2023/03/30 05:46:58;;;;;;;15.68;3.92;;;12.00;99.90;;;;;;5001181;28;20723;-59
2023/03/30 05:49:24;;;;;;;13.77;3.47;;;12.00;99.90;;;;;;5000655;28;20049;-58
2023/03/30 05:51:50;;;;;;;12.20;3.60;;;12.00;99.90;;;;;;5018555;28;20045;-59
2023/03/30 05:54:16;;;;;;;13.75;4.15;;;12.00;99.90;;;;;;5013585;28;20064;-59
2023/03/30 05:56:42;;;;;;;13.45;3.88;;;12.00;99.90;;;;;;5016972;28;20048;-60
2023/03/30 05:59:09;;;;;;;17.92;4.38;;;12.00;99.90;;;;;;5020619;28;20049;-60
2023/03/30 06:01:36;;;;;;;15.10;3.47;;;12.00;99.90;;;;;;5002247;28;20107;-60
2023/03/30 06:04:02;;;;;;;10.73;3.90;;;12.00;99.90;;;;;;5020668;28;20603;-59
2023/03/30 06:06:29;;;;;;;16.67;4.00;;;12.00;99.90;;;;;;5020675;28;20052;-59
2023/03/30 06:08:54;;;;;;;13.75;3.80;;;12.00;99.90;;;;;;5003333;28;22047;-59
2023/03/30 06:11:20;;;;;;;15.73;4.43;;;12.00;99.90;;;;;;5019500;28;20044;-63
2023/03/30 06:13:46;;;;;;;14.85;4.10;;;12.00;99.90;;;;;;4984315;28;20064;-63
2023/03/30 06:16:12;;;;;;;12.05;3.72;;;12.00;99.90;;;;;;5021285;28;20067;-63
2023/03/30 06:18:38;;;;;;;13.20;4.05;;;12.10;99.90;;;;;;5003940;28;20049;-63
2023/03/30 06:21:05;;;;;;;10.77;4.20;;;12.10;99.90;;;;;;4988620;28;20584;-63
2023/03/30 06:23:36;;;;;;;11.60;3.92;;;12.10;99.90;;;;;;4994137;28;20084;-63
2023/03/30 06:26:03;;;;;;;12.07;4.07;;;12.10;99.90;;;;;;4968101;28;20056;-63
2023/03/30 06:28:30;;;;;;;13.30;3.95;;;12.10;99.90;;;;;;4997325;28;20055;-63
2023/03/30 06:30:55;;;;;;;14.40;4.00;;;12.10;99.90;;;;;;4986595;28;20182;-63
2023/03/30 06:33:21;;;;;;;10.50;4.10;;;12.10;99.90;;;;;;4987360;28;20049;-63
2023/03/30 06:35:49;;;;;;;15.35;4.38;;;12.10;99.90;;;;;;5004659;28;20144;-63
2023/03/30 06:38:15;;;;;;;12.30;4.30;;;12.10;99.90;;;;;;5006992;28;20049;-63
2023/03/30 06:40:41;;;;;;;11.00;4.13;;;12.20;99.90;;;;;;5004474;28;20045;-63
2023/03/30 06:43:12;;;;;;;12.40;4.32;;;12.20;99.90;;;;;;5004876;28;21451;-63
2023/03/30 06:45:37;;;;;;;10.63;4.38;;;12.20;99.90;;;;;;5005220;28;20262;-64
2023/03/30 06:48:03;;;;;;;10.82;5.05;;;12.20;99.90;;;;;;5023076;28;20447;-63
2023/03/30 06:50:29;;;;;;;12.68;4.65;;;12.20;99.90;;;;;;5004521;28;20053;-63
2023/03/30 06:52:55;;;;;;;16.13;4.63;;;12.20;99.90;;;;;;4968660;28;20053;-63
2023/03/30 06:55:21;;;;;;;9.15;4.15;;;12.20;99.90;;;;;;5005652;28;20065;-63
2023/03/30 06:57:47;;;;;;;12.20;4.53;;;12.20;99.90;;;;;;5019696;28;20040;-63
2023/03/30 07:00:14;;;;;;;14.18;3.95;;;12.20;99.90;;;;;;5004450;28;20111;-63
2023/03/30 07:02:43;;;;;;;13.95;3.70;;;12.20;99.90;;;;;;5006311;28;20120;-63
2023/03/30 07:05:11;;;;;;;11.95;3.83;;;12.30;99.90;;;;;;5023928;28;20541;-63
2023/03/30 07:07:38;;;;;;;14.70;3.67;;;12.30;99.90;;;;;;5022945;28;20441;-63
2023/03/30 07:10:08;;;;;;;15.18;3.88;;;12.30;99.90;;;;;;5005630;28;20080;-63
2023/03/30 07:12:36;;;;;;;17.17;3.97;;;12.30;99.90;;;;;;5005548;28;20053;-63
2023/03/30 07:15:05;;;;;;;16.15;3.63;;;12.40;99.90;;;;;;5004877;28;20084;-63
2023/03/30 07:17:33;;;;;;;19.20;3.90;;;12.40;99.90;;;;;;5009911;28;20377;-63
2023/03/30 07:19:59;;;;;;;16.23;3.42;;;12.40;99.90;;;;;;5006227;28;20075;-63
2023/03/30 07:22:25;;;;;;;17.20;3.72;;;12.40;99.90;;;;;;5002419;28;20139;-64
2023/03/30 07:24:51;;;;;;;19.90;3.60;;;12.40;99.90;;;;;;5012903;28;20128;-63
2023/03/30 07:27:16;;;;;;;21.05;3.60;;;12.40;99.90;;;;;;4962209;28;20087;-63
2023/03/30 07:29:42;;;;;;;18.60;4.28;;;12.40;99.90;;;;;;4998604;28;20041;-63
2023/03/30 07:32:08;;;;;;;16.63;3.40;;;12.40;99.90;;;;;;4988023;28;20065;-63
2023/03/30 07:34:34;;;;;;;17.73;3.67;;;12.40;99.90;;;;;;4990003;28;20049;-63
2023/03/30 07:37:00;;;;;;;15.98;3.90;;;12.40;99.90;;;;;;5009426;28;20054;-63
2023/03/30 07:39:27;;;;;;;16.10;3.85;;;12.40;99.90;;;;;;5024798;28;20114;-63
2023/03/30 07:41:54;;;;;;;25.20;4.38;;;12.40;99.90;;;;;;4992946;28;20528;-63
2023/03/30 07:44:20;;;;;;;28.42;4.47;;;12.40;99.90;;;;;;5008380;28;20045;-63
2023/03/30 07:46:46;;;;;;;24.05;4.05;;;12.30;99.90;;;;;;4988508;28;20901;-63
2023/03/30 07:49:12;;;;;;;22.17;4.07;;;12.30;99.90;;;;;;5010069;28;20046;-63
2023/03/30 07:51:38;;;;;;;20.42;3.67;;;12.30;99.90;;;;;;5004607;28;20563;-63
2023/03/30 07:54:04;;;;;;;20.67;4.03;;;12.20;99.90;;;;;;5005600;28;20056;-63
2023/03/30 07:56:32;;;;;;;25.83;4.35;;;12.20;99.90;;;;;;5023940;28;20436;-63
2023/03/30 07:58:58;;;;;;;24.35;4.57;;;12.20;99.90;;;;;;5023150;28;20073;-63
2023/03/30 08:01:24;;;;;;;20.73;4.80;;;12.10;99.90;;;;;;4985951;28;20049;-63
2023/03/30 08:03:50;;;;;;;25.15;4.75;;;12.10;99.90;;;;;;4973031;28;20041;-63
2023/03/30 08:06:15;;;;;;;22.67;4.35;;;12.10;99.90;;;;;;5003363;28;20065;-63
2023/03/30 08:08:42;;;;;;;18.67;4.63;;;12.10;99.90;;;;;;4994582;28;20098;-63
2023/03/30 08:11:09;;;;;;;22.77;4.40;;;12.00;99.90;;;;;;5026103;28;20621;-63
2023/03/30 08:13:36;;;;;;;25.95;4.75;;;12.00;99.90;;;;;;5009352;28;20060;-63
2023/03/30 08:16:03;;;;;;;24.40;4.57;;;12.00;99.90;;;;;;5004031;28;20527;-63
2023/03/30 08:18:28;;;;;;;25.58;5.25;;;11.90;99.90;;;;;;5008469;28;20056;-63
2023/03/30 08:20:54;;;;;;;23.90;5.35;;;11.90;99.90;;;;;;5008520;28;20041;-63
2023/03/30 08:23:22;;;;;;;25.35;5.13;;;11.90;99.90;;;;;;4988362;28;21525;-63
2023/03/30 08:25:51;;;;;;;22.80;4.95;;;11.90;99.90;;;;;;5003718;28;20495;-63
2023/03/30 08:28:18;;;;;;;27.08;5.60;;;11.90;99.90;;;;;;5007597;28;20053;-63
2023/03/30 08:30:45;;;;;;;20.23;4.60;;;11.90;99.90;;;;;;4981434;28;20042;-63
2023/03/30 08:33:12;;;;;;;25.05;4.90;;;11.80;99.90;;;;;;5021414;28;20099;-63
2023/03/30 08:35:38;;;;;;;29.45;5.47;;;11.80;99.90;;;;;;5005495;28;20092;-63
2023/03/30 08:38:04;;;;;;;25.92;4.95;;;11.80;99.90;;;;;;5024806;28;20159;-63
2023/03/30 08:40:30;;;;;;;22.52;4.95;;;11.70;99.90;;;;;;5009252;28;20099;-63
2023/03/30 08:43:20;;;;;;;29.50;5.47;;;11.70;99.90;;;;;;5006718;28;20049;-63
2023/03/30 08:45:46;;;;;;;25.65;5.15;;;11.70;99.90;;;;;;5020363;28;20087;-63
2023/03/30 08:48:22;;;;;;;27.05;5.28;;;11.70;99.90;;;;;;5006713;28;20156;-63
2023/03/30 08:51:02;;;;;;;30.70;5.40;;;11.60;99.90;;;;;;5003680;28;20076;-63
2023/03/30 08:53:31;;;;;;;27.65;5.28;;;11.60;99.90;;;;;;4989930;28;20056;-63
2023/03/30 08:56:06;;;;;;;28.50;6.00;;;11.60;99.90;;;;;;5003145;28;20076;-63
2023/03/30 08:59:02;;;;;;;32.42;5.85;;;11.60;99.90;;;;;;4987496;28;20052;-63
2023/03/30 09:01:55;;;;;;;27.42;5.43;;;11.60;99.90;;;;;;4987227;28;20052;-63
2023/03/30 09:04:44;;;;;;;29.85;5.57;;;11.70;99.90;;;;;;5004395;28;20090;-63
2023/03/30 09:07:20;;;;;;;27.52;5.00;;;11.70;99.90;;;;;;4998284;28;20120;-63
2023/03/30 09:09:50;;;;;;;37.38;7.57;;;11.80;99.90;;;;;;5005017;28;20112;-63
2023/03/30 09:12:36;;;;;;;27.70;5.40;;;11.90;99.90;;;;;;5004019;28;20049;-63
2023/03/30 09:15:19;;;;;;;23.33;5.40;;;12.00;99.90;;;;;;5007147;28;20052;-63
2023/03/30 09:17:50;;;;;;;31.35;5.15;;;12.10;99.90;;;;;;5024847;28;20044;-63
2023/03/30 09:20:27;;;;;;;27.83;5.60;;;12.20;99.90;;;;;;5021579;28;20043;-63
2023/03/30 09:22:57;;;;;;;23.17;4.55;;;12.30;99.90;;;;;;5001176;28;20227;-63
2023/03/30 09:25:32;;;;;;;24.35;4.70;;;12.40;99.90;;;;;;5005933;28;20500;-63
2023/03/30 09:28:11;;;;;;;24.15;5.20;;;12.40;99.90;;;;;;5023923;28;20114;-63
2023/03/30 09:30:40;;;;;;;25.90;5.13;;;12.40;99.90;;;;;;4993036;28;20042;-63
2023/03/30 09:33:20;;;;;;;23.80;4.32;;;12.50;99.90;;;;;;5008082;28;20049;-63
2023/03/30 09:36:05;;;;;;;26.88;4.97;;;12.60;99.90;;;;;;5004079;28;20037;-63
2023/03/30 09:38:31;;;;;;;26.65;4.53;;;12.60;99.90;;;;;;5008404;28;20183;-63
2023/03/30 09:41:30;;;;;;;23.38;4.85;;;12.70;99.90;;;;;;4981395;28;20045;-63
2023/03/30 09:43:58;;;;;;;25.42;4.88;;;12.70;99.90;;;;;;5007320;28;20049;-63
2023/03/30 09:46:24;;;;;;;22.52;3.92;;;12.80;99.90;;;;;;5001978;28;20095;-63
2023/03/30 09:48:50;;;;;;;20.27;3.92;;;12.80;99.90;;;;;;5005580;28;20060;-63
2023/03/30 09:51:25;;;;;;;22.77;4.53;;;12.80;99.90;;;;;;5022396;28;20045;-63
2023/03/30 09:54:01;;;;;;;22.50;4.20;;;12.80;99.90;;;;;;4999213;28;20144;-63
2023/03/30 09:56:28;;;;;;;20.55;3.90;;;12.80;99.90;;;;;;5005036;28;20500;-63
2023/03/30 09:58:55;;;;;;;22.88;4.53;;;12.80;99.90;;;;;;4986851;28;20488;-63
2023/03/30 10:01:22;;;;;;;26.55;4.75;;;12.80;99.90;;;;;;4981636;28;20046;-63
2023/03/30 10:04:11;;;;;;;20.63;4.05;;;12.80;99.90;;;;;;5004446;28;20476;-63
2023/03/30 10:06:48;;;;;;;25.67;4.35;;;12.70;99.90;;;;;;5020199;28;20099;-63
2023/03/30 10:09:19;;;;;;;16.23;3.53;;;12.70;99.90;;;;;;5000172;28;20112;-63
2023/03/30 10:11:51;;;;;;;19.88;3.33;;;12.60;99.90;;;;;;5003952;28;20037;-63
2023/03/30 10:14:36;;;;;;;21.42;4.18;;;12.60;99.90;;;;;;5002895;28;20073;-63
2023/03/30 10:17:04;;;;;;;18.90;3.25;;;12.60;99.90;;;;;;5003002;28;20050;-63
2023/03/30 10:19:32;;;;;;;15.02;3.33;;;12.60;99.90;;;;;;5006007;28;20045;-64
2023/03/30 10:22:03;;;;;;;15.02;3.00;;;12.60;99.90;;;;;;5022090;28;20171;-63
2023/03/30 10:24:31;;;;;;;21.25;3.63;;;12.60;99.90;;;;;;5001707;28;20671;-63
2023/03/30 10:27:08;;;;;;;18.13;3.13;;;12.70;99.90;;;;;;5017848;28;20145;-63
2023/03/30 10:29:34;;;;;;;20.25;3.55;;;12.70;99.90;;;;;;5002240;28;20131;-63
2023/03/30 10:32:30;;;;;;;18.80;3.45;;;12.70;99.90;;;;;;4998708;28;20053;-63
2023/03/30 10:35:00;;;;;;;19.20;4.28;;;12.70;99.90;;;;;;4972523;28;20050;-63
2023/03/30 10:37:40;;;;;;;25.42;3.85;;;12.70;99.90;;;;;;4986264;28;20108;-63
2023/03/30 10:40:15;;;;;;;19.98;3.92;;;12.70;99.90;;;;;;4982454;28;20464;-63
2023/03/30 10:42:41;;;;;;;25.08;4.70;;;12.70;99.90;;;;;;4987391;28;20396;-63
2023/03/30 10:45:18;;;;;;;21.80;4.40;;;12.80;99.90;;;;;;5002336;28;20057;-63
2023/03/30 10:48:19;;;;;;;26.85;4.15;;;12.80;99.90;;;;;;4991632;28;20046;-63
2023/03/30 10:50:51;;;;;;;21.05;4.40;;;12.90;99.90;;;;;;4998501;28;20081;-63
2023/03/30 10:53:19;;;;;;;24.55;3.95;;;12.90;99.90;;;;;;4984899;28;20137;-63
2023/03/30 10:56:02;;;;;;;27.05;4.43;;;12.90;99.90;;;;;;4997297;28;20053;-63
2023/03/30 10:58:51;;;;;;;22.48;4.10;;;12.90;99.90;;;;;;5000101;28;21038;-63
2023/03/30 11:01:30;;;;;;;20.70;4.00;;;12.90;99.90;;;;;;5000730;28;20048;-63
2023/03/30 11:04:01;;;;;;;23.17;4.60;;;12.90;99.90;;;;;;4981678;28;20053;-63
2023/03/30 11:06:38;;;;;;;27.95;4.90;;;13.00;99.90;;;;;;5000508;28;20049;-63
2023/03/30 11:09:08;;;;;;;30.13;4.75;;;13.00;99.90;;;;;;4995244;28;20068;-63
2023/03/30 11:11:39;;;;;;;25.23;5.15;;;13.00;99.90;;;;;;4997896;28;20566;-63
2023/03/30 11:14:28;;;;;;;31.15;4.93;;;13.10;99.90;;;;;;4999988;28;20058;-63
2023/03/30 11:17:00;;;;;;;28.77;5.22;;;13.10;99.90;;;;;;5002560;28;20112;-63
2023/03/30 11:19:38;;;;;;;24.77;4.55;;;13.20;99.90;;;;;;5006201;28;20488;-63
2023/03/30 11:22:13;;;;;;;26.85;4.40;;;13.20;99.90;;;;;;5009212;28;20069;-63
2023/03/30 11:24:42;;;;;;;24.17;4.55;;;13.30;99.90;;;;;;4986948;28;20049;-63
2023/03/30 11:27:28;;;;;;;22.85;4.38;;;13.40;99.90;;;;;;5004713;28;20137;-63
2023/03/30 11:30:07;;;;;;;19.27;4.22;;;13.40;99.90;;;;;;5011102;28;20045;-63
2023/03/30 11:32:51;;;;;;;21.17;4.40;;;13.50;99.90;;;;;;5001815;28;20095;-63
2023/03/30 11:35:17;;;;;;;26.42;4.53;;;13.40;99.90;;;;;;4998700;28;20060;-63
2023/03/30 11:37:46;;;;;;;28.10;4.65;;;13.40;99.90;;;;;;5011556;28;20041;-63
2023/03/30 11:40:24;;;;;;;23.50;4.82;;;13.40;99.90;;;;;;5017794;28;20041;-63
2023/03/30 11:42:50;;;;;;;21.98;4.28;;;13.30;99.90;;;;;;4994043;28;20132;-63
2023/03/30 11:45:40;;;;;;;22.80;4.10;;;13.30;99.90;;;;;;4995686;28;20046;-63
2023/03/30 11:48:26;;;;;;;24.90;4.70;;;13.30;99.90;;;;;;4998632;28;20057;-64
2023/03/30 11:51:09;;;;;;;29.63;4.65;;;13.30;99.90;;;;;;4997570;28;20108;-63
2023/03/30 11:53:51;;;;;;;22.58;3.80;;;13.40;99.90;;;;;;5005530;28;20049;-63
2023/03/30 11:56:32;;;;;;;22.83;3.80;;;13.40;99.90;;;;;;4997199;28;20150;-63
2023/03/30 11:59:14;;;;;;;25.73;4.30;;;13.50;99.90;;;;;;4986615;28;20042;-63
2023/03/30 12:01:59;;;;;;;21.13;4.07;;;13.70;99.90;;;;;;5002434;28;20073;-63
2023/03/30 12:04:44;;;;;;;28.30;4.15;;;13.80;99.90;;;;;;5007548;28;20518;-63
2023/03/30 12:07:51;;;;;;;24.40;3.92;;;13.90;99.90;;;;;;5002937;28;20046;-63
2023/03/30 12:10:29;;;;;;;21.00;4.55;;;14.00;99.90;;;;;;4978778;28;20049;-63
2023/03/30 12:12:55;;;;;;;24.00;4.45;;;14.00;99.90;;;;;;5004121;28;20142;-63
2023/03/30 12:15:30;;;;;;;24.52;4.07;;;14.00;99.90;;;;;;4997801;28;20046;-63
2023/03/30 12:18:28;;;;;;;24.10;4.05;;;14.10;99.90;;;;;;5000106;28;20041;-63
2023/03/30 12:21:21;;;;;;;24.17;4.60;;;14.10;99.90;;;;;;5011952;28;20041;-63
2023/03/30 12:24:00;;;;;;;;;;;14.20;99.90;;;;;;5005007;28;20420;-63
2023/03/30 12:26:33;;;;;;;23.20;4.68;;;14.20;99.90;;;;;;5003901;28;19921;-63
2023/03/30 12:29:09;;;;;;;24.25;4.22;;;14.20;99.90;;;;;;4990806;28;20050;-63
2023/03/30 12:32:04;;;;;;;22.85;4.22;;;14.20;99.90;;;;;;4981365;28;20060;-63
2023/03/30 12:34:35;;;;;;;18.80;4.10;;;14.20;99.90;;;;;;5006414;28;20120;-63
2023/03/30 12:37:11;;;;;;;23.35;4.03;;;14.20;99.90;;;;;;5019405;28;20125;-63
2023/03/30 12:40:21;;;;;;;20.70;3.92;;;14.40;99.90;;;;;;5007074;28;20279;-63
2023/03/30 12:43:13;;;;;;;25.73;4.20;;;14.80;99.90;;;;;;5010295;28;20124;-63
2023/03/30 12:46:12;;;;;;;20.92;4.60;;;15.10;99.90;;;;;;5005355;28;20408;-63
2023/03/30 12:48:56;;;;;;;21.63;4.32;;;15.20;99.90;;;;;;5017273;28;20049;-63
2023/03/30 12:52:03;;;;;;;23.92;4.28;;;15.20;99.90;;;;;;4984860;28;20050;-63
2023/03/30 12:55:06;;;;;;;21.02;4.53;;;15.10;99.90;;;;;;5000598;28;20101;-63
2023/03/30 12:58:02;;;;;;;17.95;3.92;;;15.00;99.90;;;;;;5006995;28;20733;-63
2023/03/30 13:00:46;;;;;;;20.52;4.85;;;15.00;99.90;;;;;;5007939;28;20164;-63
2023/03/30 13:03:18;;;;;;;22.77;4.10;;;15.00;99.90;;;;;;5006771;28;20512;-63
2023/03/30 13:05:50;;;;;;;20.75;4.05;;;15.10;99.90;;;;;;4992850;28;20064;-63
2023/03/30 13:08:20;;;;;;;19.33;3.83;;;15.20;99.90;;;;;;5018989;28;20049;-63